Time;durP1;ratioP1;P1;durP2;ratioP2;P2;SDS_P1;SDS_P2;PMS_P1;PMS_P2;Temp;Humidity;BMP_temperature;BMP_pressure;BME280_temperature;BME280_humidity;BME280_pressure;Samples;Min_cycle;Max_cycle;Signal;HPM_P1;HPM_P2
2023/05/02 00:01:45;;;;;;;3.63;1.00;;;17.40;99.90;;;;;;5090483;28;20047;-83
2023/05/02 00:04:48;;;;;;;4.93;1.23;;;17.40;99.90;;;;;;5090602;28;20055;-81
2023/05/02 00:07:53;;;;;;;3.25;1.20;;;17.40;99.90;;;;;;5090856;28;20134;-82
2023/05/02 00:10:56;;;;;;;2.67;0.77;;;17.40;99.90;;;;;;5090354;28;20423;-81
2023/05/02 00:14:00;;;;;;;2.78;0.63;;;17.40;99.90;;;;;;5091297;28;20043;-78
2023/05/02 00:17:04;;;;;;;3.08;0.40;;;17.40;99.90;;;;;;5094179;28;20047;-81
2023/05/02 00:20:12;;;;;;;2.60;0.70;;;17.40;99.90;;;;;;5094117;28;20141;-80
2023/05/02 00:23:16;;;;;;;2.85;0.68;;;17.40;99.90;;;;;;5094459;28;20055;-78
2023/05/02 00:26:20;;;;;;;3.13;0.70;;;17.30;99.90;;;;;;5093853;28;20514;-81
2023/05/02 00:29:24;;;;;;;3.17;0.93;;;17.30;99.90;;;;;;5081922;28;20055;-78
2023/05/02 00:32:28;;;;;;;5.40;0.75;;;17.20;99.90;;;;;;5093560;28;20067;-78
2023/05/02 00:35:32;;;;;;;2.85;0.80;;;17.20;99.90;;;;;;5093168;28;20050;-82
2023/05/02 00:38:36;;;;;;;3.40;0.88;;;17.10;99.90;;;;;;5093997;28;20051;-76
2023/05/02 00:41:40;;;;;;;4.75;0.80;;;17.10;99.90;;;;;;5093190;28;20051;-81
2023/05/02 00:44:45;;;;;;;6.90;1.42;;;17.10;99.90;;;;;;5093876;28;20047;-80
2023/05/02 00:47:49;;;;;;;8.07;1.05;;;17.10;99.90;;;;;;5093855;28;20047;-79
2023/05/02 00:50:56;;;;;;;6.88;1.13;;;17.10;99.90;;;;;;5093321;28;20055;-80
2023/05/02 00:54:00;;;;;;;10.05;1.40;;;17.10;99.90;;;;;;5093802;28;20044;-78
2023/05/02 00:57:05;;;;;;;6.18;0.80;;;17.00;99.90;;;;;;5093698;28;20043;-83
2023/05/02 01:00:11;;;;;;;7.30;1.30;;;17.10;99.90;;;;;;5093200;28;20188;-81
2023/05/02 01:03:32;;;;;;;8.98;1.20;;;17.10;99.90;;;;;;5092910;28;20055;-84
2023/05/02 01:06:42;;;;;;;10.95;1.55;;;17.10;99.90;;;;;;5093106;28;20047;-81
2023/05/02 01:10:04;;;;;;;5.30;1.65;;;17.10;99.90;;;;;;5092313;28;20043;-81
2023/05/02 01:13:16;;;;;;;6.32;1.45;;;17.10;99.90;;;;;;5092829;28;20806;-79
2023/05/02 01:16:23;;;;;;;7.20;1.10;;;17.10;99.90;;;;;;5093535;28;20055;-80
2023/05/02 01:19:40;;;;;;;6.50;1.02;;;17.10;99.90;;;;;;5093006;28;20043;-80
2023/05/02 01:22:45;;;;;;;6.47;1.52;;;17.00;99.90;;;;;;5092486;28;20163;-79
2023/05/02 01:26:51;;;;;;;8.50;1.77;;;17.00;99.90;;;;;;5092629;28;20039;-78
2023/05/02 01:29:57;;;;;;;8.23;1.50;;;17.00;99.90;;;;;;5091057;28;20047;-77
2023/05/02 01:33:03;;;;;;;4.68;1.00;;;17.00;99.90;;;;;;5092970;28;20047;-78
2023/05/02 01:36:08;;;;;;;3.60;1.15;;;17.00;99.90;;;;;;5080585;28;20047;-80
2023/05/02 01:39:16;;;;;;;6.82;1.13;;;16.90;99.90;;;;;;5080495;28;20494;-79
2023/05/02 01:42:22;;;;;;;8.13;1.20;;;17.00;99.90;;;;;;5092600;28;20031;-78
2023/05/02 01:45:28;;;;;;;6.07;1.80;;;17.00;99.90;;;;;;5092680;28;20671;-78
2023/05/02 01:48:33;;;;;;;8.93;1.73;;;17.00;99.90;;;;;;5091886;28;20042;-78
2023/05/02 01:51:43;;;;;;;5.32;1.50;;;17.00;99.90;;;;;;5091433;28;20051;-77
2023/05/02 01:54:49;;;;;;;9.35;1.50;;;17.00;99.90;;;;;;5079932;28;20051;-77
2023/05/02 01:57:55;;;;;;;6.30;1.50;;;17.00;99.90;;;;;;5091415;28;20568;-79
2023/05/02 02:01:00;;;;;;;6.78;1.58;;;17.00;99.90;;;;;;5091528;28;20043;-78
2023/05/02 02:04:07;;;;;;;4.18;1.58;;;17.00;99.90;;;;;;5091537;28;20043;-78
2023/05/02 02:07:12;;;;;;;8.70;1.80;;;17.00;99.90;;;;;;5091237;28;20042;-80
2023/05/02 02:10:17;;;;;;;5.18;2.13;;;17.00;99.90;;;;;;5091243;28;20058;-81
2023/05/02 02:13:32;;;;;;;9.85;1.98;;;17.00;99.90;;;;;;5091346;28;20047;-80
2023/05/02 02:16:40;;;;;;;7.28;2.13;;;17.00;99.90;;;;;;5091395;28;20047;-79
2023/05/02 02:19:45;;;;;;;7.20;1.60;;;17.00;99.90;;;;;;5092184;28;20059;-78
2023/05/02 02:22:50;;;;;;;6.35;2.08;;;17.00;99.90;;;;;;5092124;28;20035;-78
2023/05/02 02:25:56;;;;;;;6.65;2.05;;;17.00;99.90;;;;;;5091472;28;20682;-79
2023/05/02 02:29:00;;;;;;;7.72;1.92;;;16.90;99.90;;;;;;5091201;28;20039;-79
2023/05/02 02:32:04;;;;;;;6.70;2.00;;;16.90;99.90;;;;;;5091460;28;20056;-78
2023/05/02 02:35:09;;;;;;;4.95;2.00;;;16.90;99.90;;;;;;5079418;28;20035;-79
2023/05/02 02:38:18;;;;;;;3.97;1.90;;;17.00;99.90;;;;;;5091177;28;20047;-79
2023/05/02 02:41:27;;;;;;;5.82;1.83;;;17.00;99.90;;;;;;5090946;28;20043;-79
2023/05/02 02:44:38;;;;;;;7.50;1.80;;;17.00;99.90;;;;;;5091418;28;20074;-77
2023/05/02 02:48:11;;;;;;;4.57;1.45;;;17.00;99.90;;;;;;5091528;28;20047;-78
2023/05/02 02:51:28;;;;;;;11.15;1.77;;;17.00;99.90;;;;;;5091351;28;20379;-80
2023/05/02 02:54:45;;;;;;;6.78;1.80;;;17.00;99.90;;;;;;5090328;28;20039;-79
2023/05/02 02:57:56;;;;;;;7.63;1.90;;;17.00;99.90;;;;;;5091102;28;20043;-78
2023/05/02 03:01:04;;;;;;;4.57;1.70;;;17.00;99.90;;;;;;5090446;28;20051;-79
2023/05/02 03:04:10;;;;;;;4.93;2.08;;;17.00;99.90;;;;;;5090714;28;20043;-80
2023/05/02 03:07:14;;;;;;;4.85;1.65;;;16.90;99.90;;;;;;5090278;28;20415;-80
2023/05/02 03:10:20;;;;;;;4.25;1.90;;;17.00;99.90;;;;;;5090427;28;20054;-78
2023/05/02 03:13:24;;;;;;;3.05;1.67;;;16.90;99.90;;;;;;5090408;28;20043;-77
2023/05/02 03:16:35;;;;;;;7.30;2.17;;;16.90;99.90;;;;;;5090280;28;20058;-79
2023/05/02 03:19:42;;;;;;;6.78;2.22;;;17.00;99.90;;;;;;5090092;28;20047;-79
2023/05/02 03:22:46;;;;;;;6.97;1.80;;;17.00;99.90;;;;;;5090327;28;20047;-78
2023/05/02 03:25:50;;;;;;;2.65;1.67;;;17.00;99.90;;;;;;5090336;28;20051;-78
2023/05/02 03:28:59;;;;;;;6.65;2.10;;;17.00;99.90;;;;;;5079145;28;20518;-75
2023/05/02 03:32:09;;;;;;;6.47;2.20;;;17.00;99.90;;;;;;5090765;28;20051;-76
2023/05/02 03:35:15;;;;;;;7.30;2.50;;;17.00;99.90;;;;;;5091063;28;20043;-77
2023/05/02 03:38:21;;;;;;;4.57;2.63;;;17.00;99.90;;;;;;5090327;28;20047;-77
2023/05/02 03:41:27;;;;;;;8.15;2.75;;;16.90;99.90;;;;;;5089905;28;20054;-77
2023/05/02 03:44:38;;;;;;;;;;;17.00;99.90;;;;;;5079998;28;20527;-77
2023/05/02 03:47:42;;;;;;;9.60;3.15;;;17.40;99.90;;;;;;5090034;28;19915;-77
2023/05/02 03:50:47;;;;;;;7.25;3.35;;;16.90;99.90;;;;;;5093529;28;20070;-77
2023/05/02 03:53:51;;;;;;;8.35;3.15;;;16.90;99.90;;;;;;5094797;28;20051;-77
2023/05/02 03:56:55;;;;;;;6.10;2.83;;;16.90;99.90;;;;;;5082323;28;20051;-77
2023/05/02 04:00:07;;;;;;;6.72;3.35;;;16.90;99.90;;;;;;5093471;28;20088;-79
2023/05/02 04:03:23;;;;;;;8.57;3.42;;;16.90;99.90;;;;;;5093540;28;20071;-77
2023/05/02 04:06:27;;;;;;;5.50;3.22;;;16.90;99.90;;;;;;5093860;28;20043;-77
2023/05/02 04:09:38;;;;;;;8.40;3.23;;;16.90;99.90;;;;;;5094395;28;20047;-77
2023/05/02 04:12:45;;;;;;;8.30;3.15;;;16.90;99.90;;;;;;5093597;28;20082;-77
2023/05/02 04:15:50;;;;;;;6.72;3.42;;;16.90;99.90;;;;;;5093334;28;20357;-78
2023/05/02 04:18:58;;;;;;;6.45;3.00;;;16.90;99.90;;;;;;5093081;28;20051;-77
2023/05/02 04:22:03;;;;;;;5.03;2.78;;;16.80;99.90;;;;;;5093377;28;20515;-78
2023/05/02 04:25:10;;;;;;;5.13;2.65;;;16.70;99.90;;;;;;5093312;28;20051;-77
2023/05/02 04:28:16;;;;;;;4.65;2.60;;;16.70;99.90;;;;;;5093101;28;20051;-77
2023/05/02 04:31:20;;;;;;;5.20;3.65;;;16.70;99.90;;;;;;5092861;28;20051;-78
2023/05/02 04:34:25;;;;;;;4.75;3.53;;;16.60;99.90;;;;;;5093247;28;20119;-77
2023/05/02 04:37:28;;;;;;;6.25;3.63;;;16.60;99.90;;;;;;5093989;28;20055;-79
2023/05/02 04:40:33;;;;;;;6.38;4.15;;;16.60;99.90;;;;;;5092834;28;20039;-79
2023/05/02 04:43:41;;;;;;;8.10;4.63;;;16.60;99.90;;;;;;5093264;28;20043;-78
2023/05/02 04:46:45;;;;;;;7.03;5.32;;;16.60;99.90;;;;;;5093004;28;20047;-77
2023/05/02 04:49:49;;;;;;;8.85;4.85;;;16.60;99.90;;;;;;5093852;28;20400;-77
2023/05/02 04:52:53;;;;;;;12.82;5.57;;;16.50;99.90;;;;;;5094723;28;20503;-78
2023/05/02 04:55:58;;;;;;;6.88;5.35;;;16.50;99.90;;;;;;5092554;28;20043;-77
2023/05/02 04:59:02;;;;;;;9.35;4.97;;;16.50;99.90;;;;;;5093136;28;20506;-78
2023/05/02 05:02:11;;;;;;;6.75;5.70;;;17.90;99.90;;;;;;5092992;28;20047;-78
2023/05/02 05:05:15;;;;;;;11.45;6.15;;;16.60;99.90;;;;;;5081769;28;20399;-78
2023/05/02 05:08:19;;;;;;;17.00;6.18;;;16.60;99.90;;;;;;5092642;28;20383;-77
2023/05/02 05:11:25;;;;;;;10.60;6.47;;;16.60;99.90;;;;;;5092582;28;20514;-78
2023/05/02 05:14:30;;;;;;;6.20;5.32;;;16.60;99.90;;;;;;5092300;28;20106;-78
2023/05/02 05:17:35;;;;;;;8.18;6.07;;;16.60;99.90;;;;;;5092522;28;20510;-77
2023/05/02 05:20:40;;;;;;;12.15;7.13;;;16.60;99.90;;;;;;5092329;28;20494;-79
2023/05/02 05:23:45;;;;;;;15.27;7.00;;;16.50;99.90;;;;;;5080787;28;20038;-78
2023/05/02 05:26:52;;;;;;;8.60;6.68;;;16.60;99.90;;;;;;5092182;28;20055;-64
2023/05/02 05:29:56;;;;;;;9.63;6.40;;;16.60;99.90;;;;;;5092227;28;20055;-63
2023/05/02 05:33:00;;;;;;;10.25;6.30;;;16.60;99.90;;;;;;5093204;28;20059;-64
2023/05/02 05:36:08;;;;;;;14.00;6.65;;;16.70;99.90;;;;;;5091978;28;20050;-64
2023/05/02 05:39:14;;;;;;;11.23;6.15;;;16.70;99.90;;;;;;5092881;28;20489;-64
2023/05/02 05:42:21;;;;;;;9.57;5.38;;;16.60;99.90;;;;;;5091915;28;20043;-64
2023/05/02 05:45:27;;;;;;;9.27;6.40;;;16.70;99.90;;;;;;5091643;28;20482;-65
2023/05/02 05:48:31;;;;;;;12.48;6.60;;;16.70;99.90;;;;;;5092485;28;20479;-64
2023/05/02 05:51:37;;;;;;;12.57;7.70;;;16.70;99.90;;;;;;5091418;28;20054;-64
2023/05/02 05:54:41;;;;;;;11.93;6.25;;;16.70;99.90;;;;;;5091529;28;20043;-64
2023/05/02 05:57:46;;;;;;;9.68;5.32;;;16.70;99.90;;;;;;5091531;28;20059;-65
2023/05/02 06:00:50;;;;;;;8.27;5.55;;;16.70;99.90;;;;;;5091245;28;20051;-65
2023/05/02 06:03:54;;;;;;;6.88;5.20;;;16.60;99.90;;;;;;5091409;28;20043;-64
2023/05/02 06:06:59;;;;;;;10.13;5.88;;;16.70;99.90;;;;;;5091394;28;20068;-64
2023/05/02 06:10:03;;;;;;;9.80;5.07;;;16.70;99.90;;;;;;5091979;28;20498;-64
2023/05/02 06:13:09;;;;;;;7.05;5.30;;;16.70;99.90;;;;;;5090291;28;20058;-64
2023/05/02 06:16:17;;;;;;;12.07;6.53;;;16.70;99.90;;;;;;5091012;28;20482;-65
2023/05/02 06:19:22;;;;;;;15.93;6.38;;;16.60;99.90;;;;;;5091232;28;20047;-65
2023/05/02 06:22:25;;;;;;;12.07;5.50;;;16.60;99.90;;;;;;5091857;28;20051;-64
2023/05/02 06:25:29;;;;;;;8.60;5.28;;;16.60;99.90;;;;;;5091939;28;20039;-67
2023/05/02 06:28:33;;;;;;;8.00;4.72;;;16.60;99.90;;;;;;5091663;28;20043;-64
2023/05/02 06:31:37;;;;;;;6.85;5.25;;;16.60;99.90;;;;;;5091522;28;20512;-68
2023/05/02 06:34:41;;;;;;;8.98;4.78;;;16.50;99.90;;;;;;5091327;28;20300;-69
2023/05/02 06:37:45;;;;;;;5.18;3.13;;;16.50;99.90;;;;;;5091784;28;20392;-66
2023/05/02 06:40:50;;;;;;;5.50;3.70;;;16.50;99.90;;;;;;5091263;28;20047;-68
2023/05/02 06:43:54;;;;;;;4.95;3.63;;;16.40;99.90;;;;;;5091344;28;20047;-68
2023/05/02 06:46:58;;;;;;;5.40;3.90;;;16.40;99.90;;;;;;5091419;28;20396;-67
2023/05/02 06:50:02;;;;;;;8.63;4.93;;;16.40;99.90;;;;;;5091631;28;20043;-67
2023/05/02 06:53:06;;;;;;;13.30;7.30;;;16.40;99.90;;;;;;5091322;28;20047;-68
2023/05/02 06:56:10;;;;;;;12.02;6.95;;;16.40;99.90;;;;;;5091369;28;20047;-68
2023/05/02 06:59:15;;;;;;;9.98;5.78;;;16.40;99.90;;;;;;5091521;28;20399;-67
2023/05/02 07:02:21;;;;;;;7.47;4.93;;;16.40;99.90;;;;;;5091353;28;20043;-67
2023/05/02 07:05:24;;;;;;;7.43;4.72;;;16.40;99.90;;;;;;5091270;28;20043;-65
2023/05/02 07:08:28;;;;;;;9.45;5.13;;;16.40;99.90;;;;;;5090328;28;20047;-70
2023/05/02 07:11:33;;;;;;;7.35;5.13;;;16.40;99.90;;;;;;5090723;28;20051;-66
2023/05/02 07:14:38;;;;;;;13.52;6.00;;;16.40;99.90;;;;;;5091288;28;20047;-68
2023/05/02 07:17:42;;;;;;;10.07;6.47;;;16.50;99.90;;;;;;5090483;28;20062;-68
2023/05/02 07:20:46;;;;;;;8.65;5.95;;;16.50;99.90;;;;;;5088934;28;20054;-67
2023/05/02 07:23:50;;;;;;;11.18;6.88;;;16.50;99.90;;;;;;5090781;28;20107;-66
2023/05/02 07:26:54;;;;;;;11.10;6.43;;;16.50;99.90;;;;;;5088976;28;20405;-66
2023/05/02 07:29:58;;;;;;;10.48;7.20;;;16.50;99.90;;;;;;5089027;28;20059;-66
2023/05/02 07:33:02;;;;;;;12.05;6.93;;;16.60;99.90;;;;;;5088663;28;20050;-66
2023/05/02 07:36:05;;;;;;;10.77;6.97;;;16.60;99.90;;;;;;5089433;28;20043;-66
2023/05/02 07:39:09;;;;;;;9.88;6.30;;;16.60;99.90;;;;;;5089678;28;20063;-66
2023/05/02 07:42:13;;;;;;;10.43;6.35;;;16.60;99.90;;;;;;5090775;28;20043;-66
2023/05/02 07:45:17;;;;;;;10.48;6.60;;;16.70;99.90;;;;;;5090823;28;20055;-66
2023/05/02 07:48:21;;;;;;;12.65;7.05;;;16.60;99.90;;;;;;5090717;28;20054;-66
2023/05/02 07:51:25;;;;;;;14.70;7.53;;;16.60;99.90;;;;;;5090689;28;20062;-66
2023/05/02 07:54:29;;;;;;;16.67;7.97;;;16.60;99.90;;;;;;5090660;28;20038;-66
2023/05/02 07:57:33;;;;;;;16.83;7.30;;;16.70;99.90;;;;;;5090457;28;20055;-66
2023/05/02 08:00:37;;;;;;;12.25;7.80;;;16.60;99.90;;;;;;5089759;28;20039;-66
2023/05/02 08:03:42;;;;;;;14.40;7.78;;;16.60;99.90;;;;;;5090588;28;20039;-65
2023/05/02 08:06:46;;;;;;;18.42;8.95;;;16.60;99.90;;;;;;5090612;28;20054;-65
2023/05/02 08:09:50;;;;;;;23.35;9.90;;;16.60;99.90;;;;;;5090057;28;20039;-66
2023/05/02 08:12:54;;;;;;;17.17;10.52;;;16.70;99.90;;;;;;5090019;28;20134;-66
2023/05/02 08:15:59;;;;;;;15.50;8.95;;;16.70;99.90;;;;;;5090595;28;20101;-66
2023/05/02 08:19:03;;;;;;;14.85;9.18;;;16.70;99.90;;;;;;5090486;28;20043;-66
2023/05/02 08:22:07;;;;;;;13.32;8.50;;;16.70;99.90;;;;;;5090244;28;20043;-67
2023/05/02 08:25:11;;;;;;;18.95;8.70;;;16.70;99.90;;;;;;5090548;28;20106;-66
2023/05/02 08:28:15;;;;;;;13.85;7.97;;;16.70;99.90;;;;;;5089251;28;20055;-66
2023/05/02 08:31:19;;;;;;;16.20;8.10;;;16.70;99.90;;;;;;5090362;28;20051;-66
2023/05/02 08:34:23;;;;;;;16.17;7.57;;;16.70;99.90;;;;;;5090062;28;20055;-66
2023/05/02 08:37:27;;;;;;;10.07;6.90;;;16.70;99.90;;;;;;5093730;28;20063;-66
2023/05/02 08:40:35;;;;;;;10.20;7.38;;;16.70;99.90;;;;;;5093639;28;20059;-66
2023/05/02 08:43:39;;;;;;;15.77;7.30;;;16.60;99.90;;;;;;5094073;28;20513;-66
2023/05/02 08:46:44;;;;;;;9.75;7.18;;;16.70;99.90;;;;;;5093937;28;20051;-66
2023/05/02 08:49:54;;;;;;;12.90;6.82;;;16.70;99.90;;;;;;5093858;28;20043;-66
2023/05/02 08:52:58;;;;;;;12.20;7.20;;;16.70;99.90;;;;;;5093622;28;20070;-66
2023/05/02 08:56:02;;;;;;;10.88;7.78;;;16.70;99.90;;;;;;5093843;28;20498;-65
2023/05/02 08:59:07;;;;;;;11.55;7.15;;;16.80;99.90;;;;;;5093429;28;20051;-65
2023/05/02 09:02:43;;;;;;;14.90;7.18;;;16.80;99.90;;;;;;5093581;28;20051;-66
2023/05/02 09:05:57;;;;;;;11.35;6.47;;;16.80;99.90;;;;;;5093243;28;20048;-65
2023/05/02 09:09:01;;;;;;;12.63;6.90;;;16.80;99.90;;;;;;5093032;28;20039;-66
2023/05/02 09:12:05;;;;;;;14.20;7.05;;;16.90;99.90;;;;;;5093228;28;20055;-65
2023/05/02 09:15:15;;;;;;;11.10;7.25;;;16.90;99.90;;;;;;5093276;28;20521;-66
2023/05/02 09:18:20;;;;;;;12.98;6.55;;;16.90;99.90;;;;;;5093376;28;20478;-66
2023/05/02 09:21:33;;;;;;;9.95;6.88;;;16.80;99.90;;;;;;5092746;28;20059;-66
2023/05/02 09:24:37;;;;;;;14.18;7.00;;;16.90;99.90;;;;;;5092887;28;20043;-66
2023/05/02 09:27:52;;;;;;;10.75;6.93;;;16.90;99.90;;;;;;5092787;28;20062;-65
2023/05/02 09:31:07;;;;;;;11.45;8.10;;;16.90;99.90;;;;;;5092590;28;20043;-66
2023/05/02 09:34:17;;;;;;;15.88;7.72;;;16.90;99.90;;;;;;5092056;28;20059;-66
2023/05/02 09:37:34;;;;;;;12.93;7.22;;;17.00;99.90;;;;;;5092798;28;20047;-66
2023/05/02 09:40:52;;;;;;;11.88;7.78;;;17.10;99.90;;;;;;5092354;28;20043;-65
2023/05/02 09:43:56;;;;;;;9.98;6.90;;;17.10;99.90;;;;;;5092519;28;20047;-66
2023/05/02 09:47:01;;;;;;;10.90;8.48;;;17.10;99.90;;;;;;5092567;28;20540;-65
2023/05/02 09:50:08;;;;;;;10.65;7.95;;;17.10;99.90;;;;;;5091485;28;20056;-65
2023/05/02 09:53:12;;;;;;;11.98;7.95;;;17.10;99.90;;;;;;5092230;28;20051;-65
2023/05/02 09:56:16;;;;;;;11.20;7.03;;;17.20;99.90;;;;;;5092357;28;20043;-65
2023/05/02 09:59:20;;;;;;;11.25;6.93;;;17.20;99.90;;;;;;5092040;28;20047;-65
2023/05/02 10:02:24;;;;;;;10.20;7.07;;;17.10;99.90;;;;;;5092340;28;20054;-65
2023/05/02 10:05:29;;;;;;;13.32;8.13;;;17.20;99.90;;;;;;5090985;28;20051;-65
2023/05/02 10:08:34;;;;;;;10.18;7.95;;;17.30;99.90;;;;;;5091597;28;20583;-67
2023/05/02 10:11:40;;;;;;;11.95;8.07;;;17.30;99.90;;;;;;5091692;28;20051;-66
2023/05/02 10:14:52;;;;;;;14.95;8.10;;;17.40;99.90;;;;;;5091636;28;20039;-66
2023/05/02 10:18:01;;;;;;;15.37;8.27;;;17.40;99.90;;;;;;5091720;28;20043;-67
2023/05/02 10:21:09;;;;;;;11.02;7.85;;;17.40;99.90;;;;;;5091520;28;20281;-66
2023/05/02 10:24:14;;;;;;;12.13;8.60;;;17.40;99.90;;;;;;5091580;28;20047;-67
2023/05/02 10:27:18;;;;;;;10.43;6.80;;;17.50;99.90;;;;;;5091523;28;20047;-66
2023/05/02 10:30:23;;;;;;;8.55;5.38;;;17.50;99.90;;;;;;5091598;28;20039;-65
2023/05/02 10:33:30;;;;;;;4.80;3.30;;;17.50;99.90;;;;;;5091521;28;20051;-67
2023/05/02 10:36:34;;;;;;;4.90;2.92;;;17.50;99.90;;;;;;5091938;28;20051;-68
2023/05/02 10:39:39;;;;;;;5.57;2.88;;;17.50;99.90;;;;;;5091632;28;20051;-68
2023/05/02 10:42:46;;;;;;;5.28;3.13;;;17.60;99.90;;;;;;5091718;28;20502;-68
2023/05/02 10:45:52;;;;;;;4.50;3.53;;;17.70;99.90;;;;;;5091610;28;20384;-67
2023/05/02 10:49:15;;;;;;;5.05;3.92;;;17.90;99.90;;;;;;5091543;28;20055;-69
2023/05/02 10:52:30;;;;;;;6.70;4.03;;;18.00;99.90;;;;;;5091193;28;20506;-67
2023/05/02 10:55:34;;;;;;;6.38;4.40;;;18.00;99.90;;;;;;5091319;28;20039;-68
2023/05/02 10:58:40;;;;;;;2.88;1.80;;;18.00;99.90;;;;;;5090702;28;20506;-70
2023/05/02 11:01:44;;;;;;;3.72;1.90;;;18.00;99.90;;;;;;5091280;28;20043;-70
2023/05/02 11:05:02;;;;;;;3.40;1.70;;;18.00;99.90;;;;;;5090990;28;20062;-67
2023/05/02 11:08:20;;;;;;;3.63;2.08;;;18.10;99.90;;;;;;5091276;28;20047;-68
2023/05/02 11:11:49;;;;;;;3.25;2.00;;;18.10;99.90;;;;;;5090732;28;20502;-68
2023/05/02 11:14:53;;;;;;;5.45;2.10;;;18.10;99.90;;;;;;5090925;28;20388;-68
2023/05/02 11:18:06;;;;;;;5.45;2.40;;;18.10;99.90;;;;;;5091155;28;20052;-67
2023/05/02 11:21:31;;;;;;;2.97;1.60;;;18.10;99.90;;;;;;5090896;28;20043;-67
2023/05/02 11:24:49;;;;;;;1.75;1.30;;;18.10;99.90;;;;;;5091499;28;20043;-68
2023/05/02 11:27:52;;;;;;;1.60;1.23;;;18.00;99.90;;;;;;5092038;28;20055;-68
2023/05/02 11:30:56;;;;;;;2.53;1.50;;;17.90;99.90;;;;;;5091192;28;20047;-68
2023/05/02 11:34:02;;;;;;;3.92;1.88;;;17.90;99.90;;;;;;5091155;28;20047;-68
2023/05/02 11:37:14;;;;;;;4.30;2.10;;;17.70;99.90;;;;;;5091656;28;20115;-69
2023/05/02 11:40:18;;;;;;;3.40;2.60;;;17.70;99.90;;;;;;5091629;28;20055;-68
2023/05/02 11:43:24;;;;;;;5.95;2.70;;;17.60;99.90;;;;;;5091054;28;20039;-67
2023/05/02 11:46:29;;;;;;;7.57;2.20;;;17.50;99.90;;;;;;5090666;28;20039;-67
2023/05/02 11:49:33;;;;;;;2.80;2.30;;;17.30;99.90;;;;;;5090949;28;20510;-68
2023/05/02 11:52:39;;;;;;;5.82;2.13;;;17.20;99.90;;;;;;5090711;28;20059;-68
2023/05/02 11:55:48;;;;;;;5.70;2.45;;;17.20;99.90;;;;;;5090794;28;20054;-67
2023/05/02 11:58:59;;;;;;;3.90;2.97;;;17.20;99.90;;;;;;5090650;28;20055;-68
2023/05/02 12:02:03;;;;;;;6.97;2.83;;;17.20;99.90;;;;;;5090632;28;20044;-68
2023/05/02 12:05:09;;;;;;;5.15;2.88;;;17.20;99.90;;;;;;5090755;28;20659;-68
2023/05/02 12:08:21;;;;;;;5.70;3.55;;;17.20;99.90;;;;;;5090648;28;20503;-68
2023/05/02 12:11:26;;;;;;;4.07;2.83;;;17.30;99.90;;;;;;5093870;28;20043;-68
2023/05/02 12:14:35;;;;;;;5.07;2.92;;;17.30;99.90;;;;;;5094703;28;20059;-69
2023/05/02 12:17:50;;;;;;;4.93;3.00;;;17.30;99.90;;;;;;5094295;28;20383;-70
2023/05/02 12:20:55;;;;;;;3.85;2.80;;;17.40;99.90;;;;;;5094224;28;20530;-71
2023/05/02 12:24:02;;;;;;;5.13;3.25;;;17.40;99.90;;;;;;5094611;28;20055;-68
2023/05/02 12:27:12;;;;;;;6.80;2.50;;;17.50;99.90;;;;;;5093988;28;20059;-67
2023/05/02 12:30:27;;;;;;;4.65;2.70;;;17.60;99.90;;;;;;5092195;28;20391;-68
2023/05/02 12:33:40;;;;;;;;;;;17.60;99.90;;;;;;5093394;28;20130;-69
2023/05/02 12:36:47;;;;;;;5.20;2.88;;;17.70;99.90;;;;;;5093252;28;19908;-68
2023/05/02 12:39:52;;;;;;;5.28;2.95;;;17.70;99.90;;;;;;5093977;28;20035;-68
2023/05/02 12:43:02;;;;;;;3.20;2.15;;;17.70;99.90;;;;;;5094067;28;20039;-68
2023/05/02 12:46:10;;;;;;;4.53;2.70;;;17.80;99.90;;;;;;5094152;28;20529;-67
2023/05/02 12:49:15;;;;;;;4.35;2.15;;;17.80;99.90;;;;;;5093767;28;20035;-68
2023/05/02 12:52:20;;;;;;;5.53;1.83;;;17.80;99.90;;;;;;5093732;28;20055;-68
2023/05/02 12:55:30;;;;;;;2.83;1.85;;;17.90;99.90;;;;;;5093665;28;20054;-68
2023/05/02 12:58:47;;;;;;;3.15;1.75;;;17.90;99.90;;;;;;5093363;28;20043;-68
2023/05/02 13:01:51;;;;;;;3.53;2.20;;;18.00;99.90;;;;;;5093307;28;20047;-68
2023/05/02 13:04:55;;;;;;;3.28;1.75;;;18.10;99.90;;;;;;5092857;28;20043;-68
2023/05/02 13:07:59;;;;;;;3.80;1.95;;;18.10;99.90;;;;;;5091453;28;20051;-68
2023/05/02 13:11:03;;;;;;;1.90;1.70;;;18.10;99.90;;;;;;5093052;28;20039;-67
2023/05/02 13:14:07;;;;;;;4.63;1.92;;;18.10;99.90;;;;;;5093240;28;20070;-68
2023/05/02 13:17:11;;;;;;;3.83;1.90;;;18.20;99.90;;;;;;5093331;28;20043;-68
2023/05/02 13:20:15;;;;;;;2.85;2.22;;;18.30;99.90;;;;;;5092842;28;20069;-68
2023/05/02 13:23:20;;;;;;;3.40;2.20;;;18.30;99.90;;;;;;5092149;28;20043;-68
2023/05/02 13:26:24;;;;;;;5.63;2.30;;;18.40;99.90;;;;;;5093066;28;20388;-68
2023/05/02 13:29:28;;;;;;;5.57;2.28;;;18.40;99.90;;;;;;5093063;28;20050;-68
2023/05/02 13:32:32;;;;;;;2.72;1.92;;;18.40;99.90;;;;;;5092955;28;20051;-68
2023/05/02 13:35:36;;;;;;;5.25;2.20;;;18.50;99.90;;;;;;5092860;28;20491;-67
2023/05/02 13:38:40;;;;;;;4.93;2.15;;;18.50;99.90;;;;;;5093058;28;20051;-68
2023/05/02 13:41:44;;;;;;;2.78;2.10;;;18.50;99.90;;;;;;5092801;28;20411;-68
2023/05/02 13:44:47;;;;;;;4.85;1.73;;;18.50;99.90;;;;;;5092985;28;20043;-67
2023/05/02 13:47:51;;;;;;;3.42;1.80;;;18.60;99.90;;;;;;5092626;28;20047;-68
2023/05/02 13:50:56;;;;;;;3.42;1.70;;;18.70;99.90;;;;;;5092190;28;20043;-67
2023/05/02 13:54:00;;;;;;;3.03;1.60;;;18.70;99.90;;;;;;5091037;28;20419;-68
2023/05/02 13:57:04;;;;;;;6.93;2.10;;;18.80;99.90;;;;;;5092674;28;20502;-68
2023/05/02 14:00:09;;;;;;;2.45;1.50;;;18.80;99.90;;;;;;5091534;28;20047;-68
2023/05/02 14:03:13;;;;;;;2.70;1.52;;;18.80;99.90;;;;;;5092347;28;20043;-69
2023/05/02 14:06:18;;;;;;;2.25;1.40;;;18.80;99.90;;;;;;5092354;28;20047;-69
2023/05/02 14:09:22;;;;;;;1.92;1.75;;;18.90;99.90;;;;;;5092419;28;20383;-69
2023/05/02 14:12:26;;;;;;;3.00;1.65;;;18.90;99.90;;;;;;5092148;28;20051;-70
2023/05/02 14:15:30;;;;;;;3.47;1.70;;;19.00;99.90;;;;;;5092311;28;20051;-70
2023/05/02 14:18:34;;;;;;;2.33;1.55;;;19.00;99.90;;;;;;5091312;28;20471;-68
2023/05/02 14:21:38;;;;;;;2.42;1.55;;;19.00;99.90;;;;;;5091980;28;20047;-68
2023/05/02 14:24:42;;;;;;;5.78;1.67;;;19.00;99.90;;;;;;5091889;28;20407;-68
2023/05/02 14:27:46;;;;;;;1.80;1.50;;;19.00;99.90;;;;;;5091812;28;20518;-68
2023/05/02 14:30:50;;;;;;;2.38;1.58;;;19.00;99.90;;;;;;5091662;28;20047;-69
2023/05/02 14:33:55;;;;;;;2.38;1.77;;;19.10;99.90;;;;;;5090910;28;20055;-69
2023/05/02 14:36:58;;;;;;;2.15;1.80;;;19.10;99.90;;;;;;5092010;28;20059;-68
2023/05/02 14:40:02;;;;;;;3.80;1.98;;;19.20;99.90;;;;;;5090840;28;20043;-68
2023/05/02 14:43:07;;;;;;;4.25;1.90;;;19.20;99.90;;;;;;5091441;28;20231;-69
2023/05/02 14:46:11;;;;;;;6.95;2.88;;;19.20;99.90;;;;;;5091425;28;20055;-69
2023/05/02 14:49:15;;;;;;;6.63;3.00;;;19.30;99.90;;;;;;5091645;28;20408;-69
2023/05/02 14:52:19;;;;;;;5.03;2.55;;;19.30;99.90;;;;;;5091271;28;20502;-69
2023/05/02 14:55:23;;;;;;;3.80;2.45;;;19.40;99.90;;;;;;5091275;28;20047;-69
2023/05/02 14:58:27;;;;;;;5.13;2.35;;;19.40;99.90;;;;;;5091302;28;20047;-69
2023/05/02 15:01:31;;;;;;;4.68;2.67;;;19.50;99.90;;;;;;5091144;28;20047;-69
2023/05/02 15:04:35;;;;;;;7.40;2.55;;;19.50;99.90;;;;;;5091211;28;20078;-68
2023/05/02 15:07:39;;;;;;;5.00;2.47;;;19.50;99.90;;;;;;5091435;28;20043;-69
2023/05/02 15:10:43;;;;;;;5.57;2.70;;;19.50;99.90;;;;;;5091042;28;20047;-69
2023/05/02 15:13:47;;;;;;;6.13;2.70;;;19.50;99.90;;;;;;5090826;28;20403;-69
2023/05/02 15:16:51;;;;;;;6.55;2.55;;;19.50;99.90;;;;;;5091186;28;20490;-69
2023/05/02 15:19:55;;;;;;;7.40;3.58;;;19.50;99.90;;;;;;5090956;28;20471;-68
2023/05/02 15:23:02;;;;;;;7.70;2.78;;;19.50;99.90;;;;;;5090869;28;20523;-69
2023/05/02 15:26:06;;;;;;;4.72;2.70;;;19.50;99.90;;;;;;5090658;28;20043;-69
2023/05/02 15:29:10;;;;;;;3.67;2.13;;;19.50;99.90;;;;;;5090615;28;20395;-68
2023/05/02 15:32:14;;;;;;;8.05;2.80;;;19.50;99.90;;;;;;5090912;28;20043;-67
2023/05/02 15:35:18;;;;;;;5.28;2.30;;;19.40;99.90;;;;;;5090893;28;20051;-68
2023/05/02 15:38:22;;;;;;;8.43;2.60;;;19.40;99.90;;;;;;5091172;28;20364;-68
2023/05/02 15:41:27;;;;;;;4.10;2.70;;;19.30;99.90;;;;;;5090680;28;20051;-68
2023/05/02 15:44:37;;;;;;;7.47;3.50;;;19.30;99.90;;;;;;5092384;28;20047;-69
2023/05/02 15:47:41;;;;;;;5.90;2.85;;;19.30;99.90;;;;;;5095018;28;20043;-69
2023/05/02 15:50:46;;;;;;;7.13;2.78;;;19.30;99.90;;;;;;5094873;28;20533;-68
2023/05/02 15:53:51;;;;;;;4.25;2.30;;;19.20;99.90;;;;;;5094778;28;20051;-68
2023/05/02 15:56:55;;;;;;;6.05;2.83;;;19.20;99.90;;;;;;5095062;28;20047;-68
2023/05/02 15:59:58;;;;;;;9.80;3.10;;;19.20;99.90;;;;;;5094299;28;20050;-68
2023/05/02 16:03:03;;;;;;;8.85;3.20;;;19.20;99.90;;;;;;5094759;28;20043;-69
2023/05/02 16:06:07;;;;;;;9.55;4.15;;;19.10;99.90;;;;;;5094945;28;20165;-68
2023/05/02 16:09:11;;;;;;;7.80;4.25;;;19.10;99.90;;;;;;5094213;28;20039;-68